createdAt,value
2022-08-19T00:01:10.353Z,8.50
2022-08-19T00:03:39.788Z,8.43
2022-08-19T00:06:11.441Z,7.82
2022-08-19T00:08:44.509Z,7.95
2022-08-19T00:11:25.252Z,7.72
2022-08-19T00:13:58.601Z,8.13
2022-08-19T00:16:29.472Z,8.80
2022-08-19T00:18:59.904Z,8.25
2022-08-19T00:21:29.440Z,8.77
2022-08-19T00:24:03.633Z,8.52
2022-08-19T00:26:36.233Z,8.32
2022-08-19T00:29:06.393Z,8.32
2022-08-19T00:31:39.064Z,7.90
2022-08-19T00:34:09.140Z,8.07
2022-08-19T00:36:39.243Z,8.23
2022-08-19T00:39:11.012Z,8.43
2022-08-19T00:41:43.463Z,8.45
2022-08-19T00:44:17.452Z,9.13
2022-08-19T00:46:55.302Z,8.20
2022-08-19T00:49:35.004Z,8.63
2022-08-19T00:52:10.312Z,8.30
2022-08-19T00:54:42.256Z,8.63
2022-08-19T00:57:18.519Z,9.02
2022-08-19T01:00:01.846Z,8.50
2022-08-19T01:02:36.073Z,9.68
2022-08-19T01:05:11.833Z,9.27
2022-08-19T01:07:45.652Z,9.05
2022-08-19T01:10:21.623Z,8.48
2022-08-19T01:12:52.718Z,8.57
2022-08-19T01:15:27.479Z,9.02
2022-08-19T01:17:58.011Z,9.05
2022-08-19T01:20:28.691Z,9.57
2022-08-19T01:23:02.676Z,9.30
2022-08-19T01:25:38.929Z,9.02
2022-08-19T01:28:10.590Z,8.88
2022-08-19T01:30:50.872Z,8.63
2022-08-19T01:33:22.190Z,9.57
2022-08-19T01:35:53.083Z,9.02
2022-08-19T01:38:28.023Z,8.75
2022-08-19T01:40:58.043Z,8.48
2022-08-19T01:43:28.235Z,9.07
2022-08-19T01:46:01.071Z,9.05
2022-08-19T01:48:35.830Z,10.65
2022-08-19T01:51:09.004Z,9.25
2022-08-19T01:53:41.227Z,9.70
2022-08-19T01:56:16.358Z,9.43
2022-08-19T01:58:54.960Z,8.63
2022-08-19T02:01:25.196Z,9.50
2022-08-19T02:04:02.346Z,8.98
2022-08-19T02:06:32.998Z,8.88
2022-08-19T02:09:04.613Z,10.07
2022-08-19T02:11:37.450Z,9.85
2022-08-19T02:14:11.162Z,8.88
2022-08-19T02:16:42.161Z,9.98
2022-08-19T02:19:13.770Z,9.25
2022-08-19T02:21:45.598Z,9.68
2022-08-19T02:24:23.518Z,9.45
2022-08-19T02:26:54.597Z,10.23
2022-08-19T02:29:25.137Z,10.18
2022-08-19T02:31:55.798Z,10.00
2022-08-19T02:34:27.533Z,9.75
2022-08-19T02:37:01.802Z,10.13
2022-08-19T02:39:36.241Z,10.38
2022-08-19T02:42:06.473Z,10.90
2022-08-19T02:44:35.885Z,10.52
2022-08-19T02:47:08.689Z,10.40
2022-08-19T02:49:40.553Z,10.07
2022-08-19T02:52:12.746Z,10.70
2022-08-19T02:54:48.301Z,10.98
2022-08-19T02:57:18.405Z,11.07
2022-08-19T02:59:51.413Z,10.60
2022-08-19T03:02:23.413Z,11.43
2022-08-19T03:04:53.104Z,10.65
2022-08-19T03:07:27.173Z,11.18
2022-08-19T03:10:00.574Z,11.70
2022-08-19T03:12:30.728Z,11.13
2022-08-19T03:15:01.120Z,11.73
2022-08-19T03:17:33.748Z,10.80
2022-08-19T03:20:06.532Z,11.60
2022-08-19T03:22:37.318Z,10.40
2022-08-19T03:25:09.590Z,11.35
2022-08-19T03:27:39.284Z,10.50
2022-08-19T03:30:11.596Z,11.05
2022-08-19T03:32:45.481Z,11.18
2022-08-19T03:35:15.224Z,11.88
2022-08-19T03:37:47.856Z,12.38
2022-08-19T03:40:20.324Z,13.00
2022-08-19T03:42:51.595Z,12.85
2022-08-19T03:45:21.495Z,11.95
2022-08-19T03:47:51.972Z,12.40
2022-08-19T03:50:22.980Z,11.63
2022-08-19T03:52:54.403Z,12.77
2022-08-19T03:55:28.027Z,12.57
2022-08-19T03:57:59.389Z,12.80
2022-08-19T04:00:29.527Z,12.63
2022-08-19T04:03:01.253Z,12.70
2022-08-19T04:05:31.971Z,12.23
2022-08-19T04:08:03.711Z,12.95
2022-08-19T04:10:39.925Z,13.98
2022-08-19T04:13:10.635Z,12.95
2022-08-19T04:15:43.178Z,12.75
2022-08-19T04:18:14.396Z,12.95
2022-08-19T04:20:45.379Z,13.55
2022-08-19T04:23:16.320Z,13.88
2022-08-19T04:25:48.996Z,14.25
2022-08-19T04:28:18.888Z,13.27
2022-08-19T04:30:53.267Z,13.75
2022-08-19T04:33:26.815Z,13.60
2022-08-19T04:35:59.566Z,13.27
2022-08-19T04:38:30.565Z,13.77
2022-08-19T04:41:19.600Z,14.00
2022-08-19T04:43:50.219Z,14.32
2022-08-19T04:46:40.337Z,13.45
2022-08-19T04:49:13.148Z,13.30
2022-08-19T04:51:45.370Z,13.52
2022-08-19T04:54:23.925Z,14.13
2022-08-19T04:57:08.687Z,13.75
2022-08-19T04:59:39.526Z,13.07
2022-08-19T05:02:11.584Z,13.52
2022-08-19T05:04:41.422Z,13.25
2022-08-19T05:07:11.491Z,14.00
2022-08-19T05:09:58.491Z,13.52
2022-08-19T05:12:36.105Z,13.80
2022-08-19T05:15:10.694Z,12.80
2022-08-19T05:18:00.610Z,13.40
2022-08-19T05:20:48.681Z,13.75
2022-08-19T05:23:22.569Z,13.07
2022-08-19T05:25:53.281Z,12.63
2022-08-19T05:28:24.629Z,12.93
2022-08-19T05:30:56.689Z,13.30
2022-08-19T05:33:30.661Z,12.35
2022-08-19T05:36:00.249Z,12.55
2022-08-19T05:38:30.185Z,13.15
2022-08-19T05:41:00.270Z,12.98
2022-08-19T05:43:31.817Z,12.15
2022-08-19T05:46:01.616Z,14.00
2022-08-19T05:48:31.508Z,12.73
2022-08-19T05:51:10.994Z,12.48
2022-08-19T05:53:41.269Z,13.27
2022-08-19T05:56:14.352Z,13.52
2022-08-19T05:58:48.960Z,13.02
2022-08-19T06:01:22.272Z,12.90
2022-08-19T06:03:52.444Z,11.93
2022-08-19T06:06:26.073Z,12.10
2022-08-19T06:08:57.641Z,11.73
2022-08-19T06:11:39.629Z,11.88
2022-08-19T06:14:16.787Z,11.85
2022-08-19T06:16:47.108Z,12.45
2022-08-19T06:19:19.451Z,13.55
2022-08-19T06:21:51.502Z,12.82
2022-08-19T06:24:25.399Z,12.68
2022-08-19T06:27:00.833Z,12.25
2022-08-19T06:29:34.103Z,11.02
2022-08-19T06:32:09.780Z,12.40
2022-08-19T06:34:39.380Z,11.90
2022-08-19T06:37:08.680Z,11.43
2022-08-19T06:39:41.944Z,11.90
2022-08-19T06:42:14.955Z,11.82
2022-08-19T06:44:53.101Z,13.05
2022-08-19T06:47:28.866Z,11.73
2022-08-19T06:50:03.608Z,11.15
2022-08-19T06:52:33.967Z,11.32
2022-08-19T06:55:06.946Z,11.25
2022-08-19T06:57:37.678Z,10.77
2022-08-19T07:00:13.481Z,10.85
2022-08-19T07:02:49.578Z,11.30
2022-08-19T07:05:26.351Z,10.70
2022-08-19T07:07:58.179Z,11.23
2022-08-19T07:10:33.606Z,11.00
2022-08-19T07:13:03.427Z,10.80
2022-08-19T07:15:34.598Z,10.48
2022-08-19T07:18:05.403Z,10.65
2022-08-19T07:20:34.438Z,10.07
2022-08-19T07:23:08.366Z,10.52
2022-08-19T07:25:40.007Z,10.65
2022-08-19T07:28:22.430Z,10.60
2022-08-19T07:30:55.666Z,9.80
2022-08-19T07:33:24.844Z,10.40
2022-08-19T07:35:58.345Z,9.75
2022-08-19T07:38:28.099Z,9.75
2022-08-19T07:40:58.882Z,9.20
2022-08-19T07:43:34.721Z,8.63
2022-08-19T07:48:48.190Z,9.07
2022-08-19T07:51:36.016Z,8.55
2022-08-19T07:54:10.109Z,9.02
2022-08-19T07:56:44.233Z,8.85
2022-08-19T07:59:14.693Z,9.20
2022-08-19T08:01:49.312Z,8.68
2022-08-19T08:04:36.625Z,8.30
2022-08-19T08:07:24.272Z,7.68
2022-08-19T08:10:02.831Z,8.73
2022-08-19T08:12:37.445Z,8.45
2022-08-19T08:15:19.517Z,7.82
2022-08-19T08:17:56.697Z,7.25
2022-08-19T08:20:34.333Z,7.93
2022-08-19T08:23:22.817Z,8.07
2022-08-19T08:25:54.051Z,8.02
2022-08-19T08:28:24.817Z,7.82
2022-08-19T08:30:56.213Z,7.40
2022-08-19T08:33:33.866Z,7.88
2022-08-19T08:36:06.154Z,7.80
2022-08-19T08:38:41.698Z,7.43
2022-08-19T08:41:20.469Z,7.97
2022-08-19T08:43:54.589Z,7.72
2022-08-19T08:46:30.523Z,8.35
2022-08-19T08:49:10.535Z,7.78
2022-08-19T08:51:44.194Z,7.10
2022-08-19T08:54:24.568Z,12.23
2022-08-19T08:56:56.863Z,7.43
2022-08-19T08:59:34.035Z,7.32
2022-08-19T09:02:04.100Z,7.70
2022-08-19T09:04:37.415Z,7.22
2022-08-19T09:07:38.034Z,8.70
2022-08-19T09:10:20.024Z,7.57
2022-08-19T09:13:01.227Z,6.72
2022-08-19T09:15:36.742Z,6.43
2022-08-19T09:18:19.200Z,6.57
2022-08-19T09:20:50.833Z,6.97
2022-08-19T09:23:26.701Z,6.55
2022-08-19T09:25:56.826Z,6.50
2022-08-19T09:28:31.058Z,6.20
2022-08-19T09:31:02.846Z,6.13
2022-08-19T09:33:33.254Z,6.28
2022-08-19T09:36:11.233Z,6.10
2022-08-19T09:38:43.560Z,5.93
2022-08-19T09:41:16.778Z,5.90
2022-08-19T09:43:53.589Z,5.03
2022-08-19T09:46:24.862Z,5.38
2022-08-19T09:48:56.078Z,5.43
2022-08-19T09:51:30.001Z,5.93
2022-08-19T09:54:07.954Z,4.95
2022-08-19T09:56:42.395Z,5.25
2022-08-19T09:59:13.572Z,5.20
2022-08-19T10:01:43.118Z,5.05
2022-08-19T10:04:20.118Z,5.93
2022-08-19T10:07:13.956Z,4.10
2022-08-19T10:09:45.448Z,4.55
2022-08-19T10:12:17.840Z,3.83
2022-08-19T10:14:49.457Z,3.83
2022-08-19T10:17:22.212Z,4.30
2022-08-19T10:19:57.228Z,4.40
2022-08-19T10:22:28.284Z,4.50
2022-08-19T10:24:58.953Z,4.40
2022-08-19T10:27:28.282Z,4.50
2022-08-19T10:30:02.480Z,4.40
2022-08-19T10:32:34.072Z,4.32
2022-08-19T10:35:06.062Z,3.72
2022-08-19T10:37:56.680Z,4.30
2022-08-19T10:40:27.444Z,4.10
2022-08-19T10:42:57.579Z,4.40
2022-08-19T10:45:28.176Z,3.78
2022-08-19T10:47:57.607Z,4.07
2022-08-19T10:50:45.429Z,4.20
2022-08-19T10:53:19.824Z,4.60
2022-08-19T10:56:07.378Z,3.63
2022-08-19T10:58:36.863Z,4.18
2022-08-19T11:01:08.023Z,4.15
2022-08-19T11:03:37.911Z,4.18
2022-08-19T11:06:10.666Z,3.50
2022-08-19T11:08:49.220Z,4.07
2022-08-19T11:11:23.310Z,4.40
2022-08-19T11:13:53.391Z,3.90
2022-08-19T11:16:25.346Z,4.10
2022-08-19T11:19:00.934Z,3.83
2022-08-19T11:21:33.783Z,4.13
2022-08-19T11:24:09.667Z,3.80
2022-08-19T11:26:40.794Z,4.10
2022-08-19T11:29:14.556Z,3.85
2022-08-19T11:31:48.559Z,4.22
2022-08-19T11:34:21.078Z,4.07
2022-08-19T11:36:54.305Z,3.92
2022-08-19T11:39:25.526Z,3.80
2022-08-19T11:41:55.389Z,3.85
2022-08-19T11:44:24.905Z,3.60
2022-08-19T11:46:54.597Z,3.63
2022-08-19T11:49:25.923Z,3.28
2022-08-19T11:51:55.724Z,3.20
2022-08-19T11:54:28.858Z,3.20
2022-08-19T11:56:58.514Z,2.63
2022-08-19T11:59:29.049Z,2.60
2022-08-19T12:02:00.729Z,2.70
2022-08-19T12:04:30.355Z,2.58
2022-08-19T12:07:04.750Z,2.83
2022-08-19T12:09:36.885Z,2.60
2022-08-19T12:12:11.825Z,2.80
2022-08-19T12:14:41.636Z,2.75
2022-08-19T12:17:14.878Z,2.33
2022-08-19T12:19:43.986Z,2.33
2022-08-19T12:22:13.729Z,2.63
2022-08-19T12:24:46.064Z,2.58
2022-08-19T12:27:15.468Z,2.35
2022-08-19T12:30:03.353Z,3.05
2022-08-19T12:32:33.142Z,2.92
2022-08-19T12:35:02.405Z,2.50
2022-08-19T12:37:33.632Z,2.70
2022-08-19T12:40:05.753Z,2.45
2022-08-19T12:42:36.213Z,2.80
2022-08-19T12:45:06.505Z,2.60
2022-08-19T12:47:40.838Z,2.75
2022-08-19T12:50:13.726Z,2.60
2022-08-19T12:52:43.891Z,2.50
2022-08-19T12:55:19.747Z,2.78
2022-08-19T12:57:52.379Z,2.60
2022-08-19T13:00:24.751Z,2.60
2022-08-19T13:02:55.911Z,2.70
2022-08-19T13:05:28.272Z,2.63
2022-08-19T13:08:01.242Z,2.60
2022-08-19T13:10:36.783Z,2.65
2022-08-19T13:13:08.403Z,2.83
2022-08-19T13:15:41.460Z,2.70
2022-08-19T13:18:13.266Z,2.65
2022-08-19T13:20:52.702Z,2.53
2022-08-19T13:23:24.209Z,2.80
2022-08-19T13:26:06.246Z,2.63
2022-08-19T13:28:51.785Z,2.55
2022-08-19T13:31:40.291Z,2.88
2022-08-19T13:34:10.614Z,2.47
2022-08-19T13:36:41.642Z,2.45
2022-08-19T13:39:14.446Z,2.10
2022-08-19T13:41:51.228Z,2.47
2022-08-19T13:44:21.529Z,2.80
2022-08-19T13:46:54.437Z,2.42
2022-08-19T13:49:26.403Z,2.45
2022-08-19T13:51:55.858Z,3.10
2022-08-19T13:54:25.963Z,2.47
2022-08-19T13:56:57.346Z,3.00
2022-08-19T13:59:27.272Z,2.55
2022-08-19T14:02:02.406Z,3.05
2022-08-19T14:04:31.981Z,2.85
2022-08-19T14:07:02.852Z,2.80
2022-08-19T14:09:32.970Z,3.67
2022-08-19T14:12:04.090Z,3.58
2022-08-19T14:14:35.446Z,2.70
2022-08-19T14:17:04.742Z,3.92
2022-08-19T14:19:34.541Z,2.70
2022-08-19T14:22:03.914Z,2.97
2022-08-19T14:24:33.791Z,3.08
2022-08-19T14:27:05.645Z,2.97
2022-08-19T14:29:38.377Z,3.30
2022-08-19T14:32:11.562Z,3.35
2022-08-19T14:34:47.133Z,3.95
2022-08-19T14:37:16.838Z,2.95
2022-08-19T14:39:46.369Z,3.83
2022-08-19T14:42:18.201Z,4.90
2022-08-19T14:44:47.705Z,3.70
2022-08-19T14:47:16.901Z,2.92
2022-08-19T14:49:52.073Z,2.70
2022-08-19T14:52:22.693Z,2.70
2022-08-19T14:54:51.869Z,3.50
2022-08-19T14:57:23.696Z,2.72
2022-08-19T14:59:53.169Z,3.00
2022-08-19T15:02:34.979Z,3.00
2022-08-19T15:05:05.244Z,3.03
2022-08-19T15:07:35.748Z,3.10
2022-08-19T15:10:08.464Z,3.47
2022-08-19T15:12:41.736Z,3.33
2022-08-19T15:15:17.808Z,3.33
2022-08-19T15:17:49.756Z,3.08
2022-08-19T15:20:23.361Z,3.63
2022-08-19T15:22:53.473Z,3.63
2022-08-19T15:25:24.425Z,3.50
2022-08-19T15:27:56.283Z,3.38
2022-08-19T15:30:29.784Z,3.42
2022-08-19T15:33:00.272Z,3.72
2022-08-19T15:35:30.570Z,3.80
2022-08-19T15:38:01.198Z,4.00
2022-08-19T15:40:33.696Z,3.67
2022-08-19T15:43:04.533Z,3.88
2022-08-19T15:45:37.429Z,4.68
2022-08-19T15:48:08.816Z,5.80
2022-08-19T15:50:40.323Z,5.65
2022-08-19T15:53:13.385Z,7.53
2022-08-19T15:55:48.915Z,7.22
2022-08-19T15:58:37.332Z,7.40
2022-08-19T16:01:27.389Z,7.85
2022-08-19T16:04:17.079Z,7.82
2022-08-19T16:06:50.830Z,8.10
2022-08-19T16:09:26.646Z,8.75
2022-08-19T16:12:01.879Z,9.60
2022-08-19T16:14:34.670Z,9.60
2022-08-19T16:17:06.239Z,9.93
2022-08-19T16:19:35.852Z,9.77
2022-08-19T16:22:06.380Z,11.35
2022-08-19T16:24:35.726Z,10.52
2022-08-19T16:27:07.960Z,10.50
2022-08-19T16:29:39.682Z,11.30
2022-08-19T16:32:14.897Z,11.40
2022-08-19T16:34:45.201Z,12.13
2022-08-19T16:37:18.483Z,12.15
2022-08-19T16:39:54.394Z,12.07
2022-08-19T16:42:24.227Z,12.57
2022-08-19T16:44:55.250Z,12.57
2022-08-19T16:47:24.459Z,12.73
2022-08-19T16:49:55.470Z,13.32
2022-08-19T16:52:27.219Z,12.25
2022-08-19T16:54:58.862Z,12.68
2022-08-19T16:57:28.328Z,13.27
2022-08-19T16:59:59.902Z,13.38
2022-08-19T17:02:31.735Z,13.40
2022-08-19T17:05:04.778Z,14.00
2022-08-19T17:07:34.946Z,13.82
2022-08-19T17:10:08.695Z,14.15
2022-08-19T17:12:38.661Z,13.95
2022-08-19T17:15:11.491Z,14.02
2022-08-19T17:17:40.738Z,14.35
2022-08-19T17:20:14.101Z,14.73
2022-08-19T17:22:43.329Z,13.98
2022-08-19T17:25:12.545Z,13.75
2022-08-19T17:27:42.922Z,13.65
2022-08-19T17:30:15.872Z,14.68
2022-08-19T17:32:47.666Z,14.10
2022-08-19T17:35:23.929Z,12.95
2022-08-19T17:37:56.666Z,13.20
2022-08-19T17:40:26.817Z,14.45
2022-08-19T17:43:01.949Z,14.65
2022-08-19T17:45:36.493Z,13.57
2022-08-19T17:48:08.741Z,13.55
2022-08-19T17:50:38.980Z,14.40
2022-08-19T17:53:09.180Z,15.20
2022-08-19T17:55:48.099Z,15.52
2022-08-19T17:58:17.745Z,15.48
2022-08-19T18:00:56.412Z,15.35
2022-08-19T18:03:26.876Z,14.70
2022-08-19T18:05:56.811Z,15.65
2022-08-19T18:08:26.452Z,15.15
2022-08-19T18:10:56.588Z,15.00
2022-08-19T18:13:26.796Z,15.27
2022-08-19T18:15:58.644Z,15.68
2022-08-19T18:18:32.778Z,15.10
2022-08-19T18:21:04.324Z,16.50
2022-08-19T18:23:44.598Z,17.17
2022-08-19T18:26:17.099Z,18.20
2022-08-19T18:28:49.855Z,17.10
2022-08-19T18:31:26.384Z,16.55
2022-08-19T18:33:58.763Z,18.15
2022-08-19T18:36:52.531Z,23.73
2022-08-19T18:39:44.332Z,18.67
2022-08-19T18:42:35.802Z,16.90
2022-08-19T18:45:23.542Z,17.15
2022-08-19T18:48:26.666Z,16.70
2022-08-19T18:51:04.463Z,16.15
2022-08-19T18:53:39.704Z,16.42
2022-08-19T18:56:11.510Z,15.40
2022-08-19T18:58:46.036Z,16.15
2022-08-19T19:01:24.468Z,16.05
2022-08-19T19:03:57.940Z,15.35
2022-08-19T19:06:31.332Z,15.75
2022-08-19T19:09:01.297Z,17.40
2022-08-19T19:11:36.079Z,16.67
2022-08-19T19:14:19.259Z,17.10
2022-08-19T19:17:03.817Z,16.15
2022-08-19T19:19:37.180Z,15.68
2022-08-19T19:22:08.016Z,16.08
2022-08-19T19:24:41.502Z,14.70
2022-08-19T19:27:13.415Z,13.93
2022-08-19T19:29:51.747Z,12.68
2022-08-19T19:32:25.810Z,11.88
2022-08-19T19:34:58.631Z,13.00
2022-08-19T19:37:30.674Z,11.65
2022-08-19T19:40:01.970Z,10.35
2022-08-19T19:42:34.479Z,9.82
2022-08-19T19:45:04.902Z,9.13
2022-08-19T19:47:35.009Z,9.57
2022-08-19T19:50:14.922Z,8.75
2022-08-19T19:52:47.677Z,9.88
2022-08-19T19:55:20.002Z,9.40
2022-08-19T19:57:52.066Z,9.95
2022-08-19T20:00:24.815Z,9.40
2022-08-19T20:02:56.837Z,9.30
2022-08-19T20:05:30.445Z,10.45
2022-08-19T20:08:17.545Z,9.52
2022-08-19T20:10:48.677Z,9.57
2022-08-19T20:13:18.285Z,9.27
2022-08-19T20:15:49.937Z,9.43
2022-08-19T20:18:20.717Z,9.65
2022-08-19T20:20:54.001Z,9.73
2022-08-19T20:23:25.186Z,10.48
2022-08-19T20:25:56.678Z,10.15
2022-08-19T20:28:27.048Z,10.40
2022-08-19T20:30:57.078Z,10.88
2022-08-19T20:33:28.992Z,12.07
2022-08-19T20:36:00.256Z,10.77
2022-08-19T20:38:30.705Z,11.63
2022-08-19T20:41:01.052Z,12.18
2022-08-19T20:43:31.037Z,12.27
2022-08-19T20:46:05.584Z,12.23
2022-08-19T20:48:39.748Z,12.32
2022-08-19T20:51:12.920Z,12.07
2022-08-19T20:53:43.854Z,11.40
2022-08-19T20:56:14.229Z,11.05
2022-08-19T20:58:43.881Z,11.77
2022-08-19T21:01:13.680Z,11.50
2022-08-19T21:03:48.847Z,12.63
2022-08-19T21:06:23.154Z,12.40
2022-08-19T21:08:55.307Z,12.43
2022-08-19T21:11:26.495Z,12.52
2022-08-19T21:14:01.591Z,12.18
2022-08-19T21:16:37.380Z,13.05
2022-08-19T21:19:11.396Z,13.50
2022-08-19T21:21:43.323Z,13.95
2022-08-19T21:24:13.059Z,14.13
2022-08-19T21:26:49.435Z,12.82
2022-08-19T21:29:24.100Z,13.55
2022-08-19T21:31:54.175Z,12.93
2022-08-19T21:34:25.267Z,13.27
2022-08-19T21:36:59.970Z,12.10
2022-08-19T21:39:31.399Z,13.15
2022-08-19T21:42:03.140Z,13.63
2022-08-19T21:44:33.807Z,14.60
2022-08-19T21:47:07.514Z,14.82
2022-08-19T21:49:40.650Z,14.40
2022-08-19T21:52:13.802Z,14.45
2022-08-19T21:54:43.718Z,15.13
2022-08-19T21:57:12.692Z,14.98
2022-08-19T21:59:43.537Z,15.15
2022-08-19T22:02:21.550Z,14.65
2022-08-19T22:04:51.708Z,14.75
2022-08-19T22:07:25.850Z,15.30
2022-08-19T22:09:58.789Z,14.45
2022-08-19T22:12:31.246Z,14.18
2022-08-19T22:15:02.844Z,14.70
2022-08-19T22:17:33.902Z,13.70
2022-08-19T22:20:06.559Z,14.98
2022-08-19T22:22:39.226Z,15.23
2022-08-19T22:25:14.362Z,15.27
2022-08-19T22:28:03.862Z,15.82
2022-08-19T22:30:35.835Z,14.85
2022-08-19T22:33:08.319Z,15.55
2022-08-19T22:35:39.518Z,15.02
2022-08-19T22:38:13.561Z,17.27
2022-08-19T22:40:48.541Z,16.35
2022-08-19T22:43:22.321Z,15.68
2022-08-19T22:45:53.678Z,16.85
2022-08-19T22:48:25.677Z,33.38
2022-08-19T22:51:12.577Z,17.50
2022-08-19T22:53:56.401Z,16.33
2022-08-19T22:56:27.240Z,16.63
2022-08-19T22:58:56.351Z,17.15
2022-08-19T23:01:30.359Z,17.63
2022-08-19T23:04:03.916Z,19.35
2022-08-19T23:06:40.279Z,19.23
2022-08-19T23:09:17.183Z,19.00
2022-08-19T23:11:48.526Z,18.50
2022-08-19T23:14:19.640Z,18.02
2022-08-19T23:16:51.350Z,18.17
2022-08-19T23:19:24.648Z,18.02
2022-08-19T23:21:55.089Z,17.13
2022-08-19T23:24:29.043Z,17.33
2022-08-19T23:27:15.883Z,16.35
2022-08-19T23:30:03.051Z,16.65
2022-08-19T23:32:36.951Z,16.73
2022-08-19T23:35:09.639Z,17.58
2022-08-19T23:37:39.283Z,18.67
2022-08-19T23:40:13.088Z,19.63
2022-08-19T23:42:43.607Z,18.10
2022-08-19T23:45:13.935Z,17.02
2022-08-19T23:47:43.519Z,18.38
2022-08-19T23:50:16.783Z,18.40
2022-08-19T23:52:52.090Z,18.52
2022-08-19T23:55:27.654Z,18.27
2022-08-19T23:57:59.926Z,18.10
